Time;durP1;ratioP1;P1;durP2;ratioP2;P2;SDS_P1;SDS_P2;PMS_P1;PMS_P2;Temp;Humidity;BMP_temperature;BMP_pressure;BME280_temperature;BME280_humidity;BME280_pressure;Samples;Min_cycle;Max_cycle;Signal;HPM_P1;HPM_P2
2021/05/09 00:02:31;;;;;;;1.87;1.40;;;;;;;17.95;44.71;94876.44;6968355;28;20362;-70
2021/05/09 00:05:52;;;;;;;2.97;1.40;;;;;;;17.93;44.75;94873.09;6950404;28;20634;-70
2021/05/09 00:09:12;;;;;;;2.50;1.30;;;;;;;17.93;44.35;94874.94;6963676;28;20220;-71
2021/05/09 00:12:33;;;;;;;1.37;1.23;;;;;;;17.93;44.51;94874.94;6954831;28;20331;-70
2021/05/09 00:15:53;;;;;;;1.83;1.33;;;;;;;17.92;44.29;94871.44;6960456;28;20227;-70
2021/05/09 00:19:13;;;;;;;4.00;1.30;;;;;;;17.92;44.43;94867.91;6971558;28;20746;-71
2021/05/09 00:22:34;;;;;;;2.43;1.50;;;;;;;17.90;44.07;94864.59;6959319;28;20218;-70
2021/05/09 00:25:54;;;;;;;1.70;1.40;;;;;;;17.89;44.21;94861.06;6969168;28;20321;-72
2021/05/09 00:29:15;;;;;;;1.70;1.40;;;;;;;17.89;44.12;94852.19;6956429;28;20223;-70
2021/05/09 00:32:35;;;;;;;2.47;1.20;;;;;;;17.89;44.07;94858.38;6965632;28;20686;-69
2021/05/09 00:35:56;;;;;;;2.43;1.27;;;;;;;17.88;43.67;94854.03;6970315;28;20208;-70
2021/05/09 00:39:16;;;;;;;2.57;1.27;;;;;;;17.89;43.71;94849.50;6969902;28;20215;-71
2021/05/09 00:42:37;;;;;;;1.03;0.90;;;;;;;17.86;43.91;94842.63;6958467;28;20226;-71
2021/05/09 00:45:57;;;;;;;1.13;1.10;;;;;;;17.87;43.93;94848.84;6955888;28;20243;-70
2021/05/09 00:49:18;;;;;;;1.70;1.10;;;;;;;17.88;43.78;94850.50;6969734;28;20337;-71
2021/05/09 00:52:41;;;;;;;3.17;1.40;;;;;;;17.89;43.86;94838.75;6973820;28;20233;-71
2021/05/09 00:56:03;;;;;;;1.70;1.40;;;;;;;17.87;44.29;94846.16;6945350;28;20678;-70
2021/05/09 00:59:28;;;;;;;1.73;1.23;;;;;;;17.86;44.46;94841.81;6950540;28;20773;-71
2021/05/09 01:02:48;;;;;;;2.50;1.20;;;;;;;17.83;44.46;94842.19;6955035;28;20234;-71
2021/05/09 01:06:09;;;;;;;2.93;1.20;;;;;;;17.82;44.69;94835.16;6955989;28;20219;-71
2021/05/09 01:09:30;;;;;;;1.50;1.40;;;;;;;17.81;44.55;94837.00;6958549;28;20206;-71
2021/05/09 01:12:51;;;;;;;2.60;1.50;;;;;;;17.87;44.59;94832.72;6968588;28;20225;-70
2021/05/09 01:16:14;;;;;;;1.87;1.30;;;;;;;17.84;45.00;94831.28;6953688;28;20315;-70
2021/05/09 01:19:36;;;;;;;2.37;1.40;;;;;;;17.80;45.34;94830.00;6967349;28;20225;-71
2021/05/09 01:22:56;;;;;;;3.10;1.40;;;;;;;17.78;45.18;94828.50;6961046;28;20221;-70
2021/05/09 01:26:17;;;;;;;2.13;1.30;;;;;;;17.76;44.98;94817.09;6976221;28;20235;-71
2021/05/09 01:29:37;;;;;;;2.77;1.40;;;;;;;17.73;45.52;94815.66;6958135;28;20249;-71
2021/05/09 01:32:58;;;;;;;1.93;1.10;;;;;;;17.69;45.65;94816.22;6950391;28;20258;-70
2021/05/09 01:36:18;;;;;;;2.10;1.23;;;;;;;17.69;45.47;94817.06;6963334;28;20211;-71
2021/05/09 01:39:38;;;;;;;2.13;1.13;;;;;;;17.71;45.40;94819.53;6968607;28;20606;-67
2021/05/09 01:43:02;;;;;;;3.13;1.30;;;;;;;17.74;45.32;94827.22;6966318;28;20222;-71
2021/05/09 01:46:22;;;;;;;2.57;1.60;;;;;;;17.77;45.29;94811.56;6959957;28;20211;-71
2021/05/09 01:49:43;;;;;;;2.00;1.40;;;;;;;17.76;45.16;94815.25;6963703;28;20942;-70
2021/05/09 01:53:03;;;;;;;4.93;1.37;;;;;;;17.78;45.13;94813.22;6973813;28;20645;-70
2021/05/09 01:56:24;;;;;;;3.53;1.70;;;;;;;17.79;45.19;94803.31;6967016;28;20230;-70
2021/05/09 01:59:44;;;;;;;3.03;1.33;;;;;;;17.80;45.10;94810.34;6979231;28;20222;-70
2021/05/09 02:03:05;;;;;;;1.77;1.27;;;;;;;17.81;44.97;94807.47;6970427;28;20222;-70
2021/05/09 02:06:25;;;;;;;1.83;1.30;;;;;;;17.81;44.86;94798.56;6953267;28;20306;-70
2021/05/09 02:09:46;;;;;;;1.70;1.10;;;;;;;17.81;45.05;94796.72;6928753;28;20303;-71
2021/05/09 02:13:06;;;;;;;2.20;1.17;;;;;;;17.79;45.40;94796.09;6967401;28;20301;-70
2021/05/09 02:16:27;;;;;;;3.97;1.30;;;;;;;17.84;45.12;94795.53;6956807;28;20893;-70
2021/05/09 02:19:47;;;;;;;2.47;1.17;;;;;;;17.82;45.13;94790.31;6961608;28;20231;-70
2021/05/09 02:23:08;;;;;;;2.80;1.27;;;;;;;17.76;45.54;94782.19;6963732;28;20311;-71
2021/05/09 02:26:31;;;;;;;1.50;1.30;;;;;;;17.71;45.76;94784.63;6966853;28;20686;-70
2021/05/09 02:29:51;;;;;;;1.70;1.60;;;;;;;17.65;45.70;94782.72;6963315;28;20591;-70
2021/05/09 02:33:12;;;;;;;2.73;1.23;;;;;;;17.60;45.81;94782.47;6965494;28;20683;-71
2021/05/09 02:36:33;;;;;;;2.87;1.30;;;;;;;17.58;45.63;94782.63;6960693;28;20261;-71
2021/05/09 02:39:56;;;;;;;3.53;1.30;;;;;;;17.54;45.70;94775.97;6973369;28;20231;-71
2021/05/09 02:43:17;;;;;;;2.47;1.20;;;;;;;17.50;45.83;94782.75;6966112;28;20219;-70
2021/05/09 02:46:37;;;;;;;1.30;1.20;;;;;;;17.47;45.83;94778.56;6975820;28;20836;-71
2021/05/09 02:49:59;;;;;;;1.43;1.27;;;;;;;17.46;45.54;94776.06;6957493;28;20223;-70
2021/05/09 02:53:19;;;;;;;1.83;1.20;;;;;;;17.45;45.35;94779.78;6959565;28;20249;-70
2021/05/09 02:56:40;;;;;;;2.67;1.40;;;;;;;17.41;45.35;94771.25;6962989;28;20222;-70
2021/05/09 03:00:03;;;;;;;3.73;1.40;;;;;;;17.40;45.41;94780.34;6963696;28;20222;-71
2021/05/09 03:03:24;;;;;;;2.67;1.20;;;;;;;17.38;45.21;94768.97;6967196;28;20761;-71
2021/05/09 03:06:44;;;;;;;1.50;1.10;;;;;;;17.39;45.27;94775.19;6948520;28;20220;-69
2021/05/09 03:10:05;;;;;;;2.73;1.60;;;;;;;17.38;45.21;94778.88;6966211;28;20231;-70
2021/05/09 03:13:25;;;;;;;2.10;1.27;;;;;;;17.37;45.19;94774.53;6964224;28;20633;-70
2021/05/09 03:16:46;;;;;;;1.63;1.00;;;;;;;17.34;45.38;94769.53;6964318;28;20678;-70
2021/05/09 03:20:07;;;;;;;1.37;1.27;;;;;;;17.32;45.46;94783.16;6970809;28;20222;-69
2021/05/09 03:23:27;;;;;;;2.17;1.17;;;;;;;17.32;45.43;94771.56;6967616;28;20225;-70
2021/05/09 03:26:48;;;;;;;1.67;1.30;;;;;;;17.31;44.81;94773.41;6977934;28;20218;-71
2021/05/09 03:30:09;;;;;;;1.27;1.17;;;;;;;17.32;44.52;94775.09;6965277;28;20227;-71
2021/05/09 03:33:30;;;;;;;1.73;1.30;;;;;;;17.33;44.78;94771.41;6929774;28;20237;-70
2021/05/09 03:36:50;;;;;;;2.50;1.57;;;;;;;17.35;44.62;94776.59;6980123;28;20225;-70
2021/05/09 03:40:11;;;;;;;1.83;1.33;;;;;;;17.32;44.74;94774.25;6963836;28;20230;-70
2021/05/09 03:43:31;;;;;;;1.83;1.73;;;;;;;17.31;44.77;94772.59;6961008;28;20268;-70
2021/05/09 03:46:52;;;;;;;1.77;1.30;;;;;;;17.29;44.81;94754.00;6961331;28;20229;-70
2021/05/09 03:50:12;;;;;;;3.10;1.20;;;;;;;17.28;44.39;94765.75;6958677;28;20254;-70
2021/05/09 03:53:33;;;;;;;2.03;1.27;;;;;;;17.27;44.67;94768.63;6970642;28;20887;-71
2021/05/09 03:56:53;;;;;;;4.67;1.33;;;;;;;17.24;44.59;94767.16;6963776;28;20227;-70
2021/05/09 04:00:14;;;;;;;2.17;1.40;;;;;;;17.25;44.17;94762.63;6965777;28;20707;-70
2021/05/09 04:03:35;;;;;;;2.53;1.57;;;;;;;17.25;43.92;94759.94;6976635;28;20215;-70
2021/05/09 04:06:55;;;;;;;3.47;1.50;;;;;;;17.27;43.68;94760.56;6948308;28;20592;-70
2021/05/09 04:10:16;;;;;;;1.53;1.20;;;;;;;17.28;43.85;94763.06;6964201;28;20215;-70
2021/05/09 04:13:45;;;;;;;1.40;1.30;;;;;;;17.28;43.77;94756.88;6976806;28;20305;-70
2021/05/09 04:17:05;;;;;;;2.10;1.00;;;;;;;17.30;43.79;94755.66;6960067;28;20214;-71
2021/05/09 04:20:28;;;;;;;2.47;1.40;;;;;;;17.32;43.61;94753.63;6973394;28;20230;-70
2021/05/09 04:23:50;;;;;;;1.47;1.37;;;;;;;17.39;43.36;94754.53;6958527;28;20265;-71
2021/05/09 04:27:11;;;;;;;4.43;1.03;;;;;;;17.45;43.91;94769.84;6975114;28;20214;-71
2021/05/09 04:30:32;;;;;;;2.90;1.00;;;;;;;17.50;43.95;94763.94;6937746;28;20965;-70
2021/05/09 04:33:55;;;;;;;1.77;1.23;;;;;;;17.49;44.21;94762.28;6967722;28;20214;-71
2021/05/09 04:37:15;;;;;;;4.10;1.20;;;;;;;17.57;44.28;94764.84;6933276;28;20231;-70
2021/05/09 04:40:35;;;;;;;1.60;1.40;;;;;;;17.69;44.14;94762.53;6942465;28;20598;-70
2021/05/09 04:43:58;;;;;;;2.70;1.40;;;;;;;17.83;43.18;94759.78;6953659;28;20290;-70
2021/05/09 04:47:18;;;;;;;2.80;1.00;;;;;;;18.01;42.79;94768.19;6940337;28;20230;-71
2021/05/09 04:50:38;;;;;;;3.33;1.20;;;;;;;18.19;41.86;94753.47;6952689;28;20309;-71
2021/05/09 04:53:59;;;;;;;2.90;1.20;;;;;;;18.35;42.28;94762.09;6944300;28;20223;-70
2021/05/09 04:57:19;;;;;;;4.53;1.20;;;;;;;18.48;42.35;94769.41;6947808;28;20220;-71
2021/05/09 05:00:40;;;;;;;2.60;1.40;;;;;;;18.61;42.21;94774.88;6941849;28;20243;-71
2021/05/09 05:04:00;;;;;;;1.10;1.00;;;;;;;18.71;42.38;94774.56;6939901;28;20222;-71
2021/05/09 05:07:21;;;;;;;2.10;1.30;;;;;;;18.81;42.68;94781.22;6931429;28;20215;-71
2021/05/09 05:10:41;;;;;;;1.30;1.20;;;;;;;18.91;41.28;94780.91;6959331;28;20231;-71
2021/05/09 05:14:01;;;;;;;5.83;1.40;;;;;;;19.04;40.36;94780.94;6955796;28;20214;-71
2021/05/09 05:17:22;;;;;;;2.97;1.17;;;;;;;19.24;39.84;94775.66;6957113;28;20715;-70
2021/05/09 05:20:43;;;;;;;2.20;1.10;;;;;;;19.43;39.43;94779.44;6961082;28;20609;-71
2021/05/09 05:24:04;;;;;;;1.73;1.00;;;;;;;19.63;39.13;94781.22;6956036;28;20222;-71
2021/05/09 05:27:24;;;;;;;3.13;1.23;;;;;;;19.79;38.99;94788.09;6960515;28;20281;-71
2021/05/09 05:30:45;;;;;;;1.30;1.20;;;;;;;19.94;38.89;94790.59;6948432;28;20226;-71
2021/05/09 05:34:06;;;;;;;3.07;1.80;;;;;;;20.05;39.46;94780.06;6947490;28;20225;-70
2021/05/09 05:37:28;;;;;;;3.13;1.20;;;;;;;20.19;39.19;94777.38;6958017;28;20230;-71
2021/05/09 05:40:53;;;;;;;2.40;1.20;;;;;;;20.30;39.26;94774.91;6952364;28;20239;-72
2021/05/09 05:44:14;;;;;;;2.57;1.23;;;;;;;20.44;38.56;94775.75;6964434;28;20222;-71
2021/05/09 05:47:34;;;;;;;1.67;0.97;;;;;;;20.61;38.02;94779.69;6956273;28;20219;-71
2021/05/09 05:50:58;;;;;;;0.90;0.87;;;;;;;20.79;37.45;94773.63;6949124;28;20271;-71
2021/05/09 05:54:18;;;;;;;1.37;1.10;;;;;;;20.98;36.97;94772.75;6944786;28;20272;-70
2021/05/09 05:57:39;;;;;;;1.90;1.23;;;;;;;21.19;36.87;94763.59;6949369;28;20222;-71
2021/05/09 06:00:59;;;;;;;1.50;1.10;;;;;;;21.39;36.07;94762.47;6951906;28;20702;-72
2021/05/09 06:04:19;;;;;;;10.37;5.03;;;;;;;21.60;35.17;94769.47;6956538;28;20216;-72
2021/05/09 06:07:40;;;;;;;2.83;2.00;;;;;;;21.75;35.49;94756.50;6945646;28;20248;-71
2021/05/09 06:11:00;;;;;;;3.90;1.27;;;;;;;21.92;34.60;94764.91;6958463;28;20226;-72
2021/05/09 06:14:21;;;;;;;2.70;1.60;;;;;;;22.06;34.64;94761.13;6963966;28;20316;-71
2021/05/09 06:17:42;;;;;;;2.17;1.20;;;;;;;22.29;34.62;94752.41;6956423;28;20242;-71
2021/05/09 06:21:03;;;;;;;1.57;1.10;;;;;;;22.53;33.91;94750.75;6951221;28;20227;-72
2021/05/09 06:24:24;;;;;;;1.20;1.10;;;;;;;22.73;33.71;94748.75;6972313;28;20223;-72
2021/05/09 06:27:44;;;;;;;2.00;1.00;;;;;;;22.92;33.05;94745.00;6968956;28;20305;-71
2021/05/09 06:31:04;;;;;;;1.40;1.10;;;;;;;23.13;32.74;94741.03;6947483;28;20222;-72
2021/05/09 06:34:25;;;;;;;2.37;1.20;;;;;;;23.37;33.07;94742.00;6954933;28;20225;-73
2021/05/09 06:37:46;;;;;;;1.33;1.03;;;;;;;23.43;32.33;94733.78;6967137;28;20226;-73
2021/05/09 06:41:06;;;;;;;1.77;1.17;;;;;;;23.61;32.29;94732.94;6954554;28;20226;-75
2021/05/09 06:44:31;;;;;;;1.53;1.00;;;;;;;23.90;31.51;94737.53;6955544;28;20223;-72
2021/05/09 06:47:53;;;;;;;3.60;1.10;;;;;;;24.17;30.90;94721.75;6967525;28;20597;-74
2021/05/09 06:51:17;;;;;;;1.17;1.00;;;;;;;24.31;29.46;94730.50;6945921;28;20257;-73
2021/05/09 06:54:37;;;;;;;1.37;1.23;;;;;;;24.42;30.05;94726.97;6951924;28;20229;-75
2021/05/09 06:57:58;;;;;;;1.45;1.00;;;;;;;24.63;29.47;94720.97;6950569;28;20221;-72
2021/05/09 07:01:18;;;;;;;1.50;1.02;;;;;;;24.85;29.02;94718.47;6966988;28;20249;-74
2021/05/09 07:04:38;;;;;;;1.27;1.13;;;;;;;25.06;29.61;94717.06;6955962;28;20216;-74
2021/05/09 07:07:59;;;;;;;2.20;1.15;;;;;;;25.31;28.96;94709.47;6920374;28;20703;-72
2021/05/09 07:11:19;;;;;;;1.95;0.98;;;;;;;25.56;28.52;94704.56;6943157;28;20228;-70
2021/05/09 07:14:40;;;;;;;1.95;1.00;;;;;;;25.82;27.52;94705.06;6951996;28;20212;-71
2021/05/09 07:21:35;;;;;;;3.25;1.10;;;;;;;26.33;28.35;94695.94;6947942;28;20222;-71
2021/05/09 07:24:55;;;;;;;2.67;1.17;;;;;;;26.44;29.48;94697.78;6950376;28;20239;-71
2021/05/09 07:28:16;;;;;;;1.10;0.95;;;;;;;26.58;28.69;94692.81;6948040;28;20682;-71
2021/05/09 07:31:40;;;;;;;2.22;0.95;;;;;;;26.84;27.29;94686.69;6956182;28;20264;-73
2021/05/09 07:35:01;;;;;;;2.25;1.02;;;;;;;27.26;27.45;94687.03;6943084;28;20236;-70
2021/05/09 07:38:21;;;;;;;1.30;1.05;;;;;;;27.61;28.98;94687.50;6953259;28;20226;-71
2021/05/09 07:41:41;;;;;;;2.28;0.90;;;;;;;28.03;25.57;94673.19;6946501;28;20227;-70
2021/05/09 07:45:02;;;;;;;4.68;1.42;;;;;;;28.40;26.01;94671.38;6941854;28;20311;-70
2021/05/09 07:48:22;;;;;;;2.17;1.23;;;;;;;28.85;25.22;94668.19;6939396;28;20642;-70
2021/05/09 07:51:43;;;;;;;1.80;1.08;;;;;;;29.23;23.59;94663.47;6951618;28;20306;-71
2021/05/09 07:55:05;;;;;;;2.00;1.48;;;;;;;29.43;24.89;94671.81;6953666;28;20216;-71
2021/05/09 07:58:26;;;;;;;2.78;1.05;;;;;;;29.43;26.31;94664.44;6951573;28;20212;-71
2021/05/09 08:01:46;;;;;;;2.85;1.38;;;;;;;29.42;25.77;94662.78;6967718;28;20274;-71
2021/05/09 08:05:07;;;;;;;5.25;1.70;;;;;;;29.53;25.08;94657.34;6963193;28;20216;-71
2021/05/09 08:08:28;;;;;;;4.57;2.42;;;;;;;29.71;25.56;94662.34;6961959;28;20217;-71
2021/05/09 08:11:48;;;;;;;4.07;2.45;;;;;;;29.75;25.59;94661.53;6953150;28;20214;-71
2021/05/09 08:15:09;;;;;;;2.78;1.27;;;;;;;29.83;25.12;94665.66;6948998;28;20212;-70
2021/05/09 08:18:31;;;;;;;2.80;1.20;;;;;;;29.93;24.05;94656.69;6962108;28;20328;-71
2021/05/09 08:21:54;;;;;;;3.10;1.08;;;;;;;30.00;24.50;94666.28;6951774;28;20242;-71
2021/05/09 08:25:18;;;;;;;1.38;1.10;;;;;;;29.96;24.93;94659.72;6959056;28;20301;-71
2021/05/09 08:28:43;;;;;;;1.10;1.00;;;;;;;30.06;24.59;94659.72;6962311;28;20309;-72
2021/05/09 08:32:04;;;;;;;2.55;1.20;;;;;;;30.31;24.19;94645.22;6966957;28;20315;-71
2021/05/09 08:35:27;;;;;;;3.10;1.25;;;;;;;30.63;24.11;94645.00;6971035;28;20230;-72
2021/05/09 08:38:49;;;;;;;2.55;1.23;;;;;;;31.07;23.99;94645.22;6952939;28;20225;-73
2021/05/09 08:42:16;;;;;;;3.05;1.67;;;;;;;31.73;23.24;94637.59;6961538;28;20280;-73
2021/05/09 08:45:37;;;;;;;2.53;1.13;;;;;;;32.07;22.92;94640.41;6955809;28;20217;-73
2021/05/09 08:48:57;;;;;;;4.43;1.35;;;;;;;32.26;21.92;94646.88;6963354;28;20219;-72
2021/05/09 08:52:20;;;;;;;4.22;1.20;;;;;;;32.72;21.30;94635.53;6957958;28;20215;-72
2021/05/09 08:55:42;;;;;;;2.78;1.10;;;;;;;33.25;21.11;94638.34;6960932;28;20214;-72
2021/05/09 08:59:05;;;;;;;1.80;1.33;;;;;;;34.01;20.00;94629.94;6956311;28;20659;-73
2021/05/09 09:02:26;;;;;;;5.18;1.25;;;;;;;34.89;19.26;94637.41;6949494;28;20237;-73
2021/05/09 09:05:51;;;;;;;1.17;1.08;;;;;;;35.86;18.98;94631.69;6962168;28;20265;-73
2021/05/09 09:09:23;;;;;;;2.42;1.08;;;;;;;36.69;18.68;94632.31;6957937;28;20230;-73
2021/05/09 09:12:43;;;;;;;3.35;1.40;;;;;;;37.40;17.54;94628.50;6944296;28;20621;-74
2021/05/09 09:16:04;;;;;;;5.70;1.05;;;;;;;38.18;16.73;94624.84;6953099;28;20757;-73
2021/05/09 09:19:27;;;;;;;1.20;1.10;;;;;;;38.91;15.46;94627.84;6960338;28;20219;-73
2021/05/09 09:22:53;;;;;;;1.27;1.17;;;;;;;39.63;15.35;94635.31;6960753;28;20258;-73
2021/05/09 09:26:50;;;;;;;1.20;1.10;;;;;;;40.02;14.44;94628.59;6955877;28;20211;-73
2021/05/09 09:30:12;;;;;;;2.75;1.30;;;;;;;39.91;15.11;94636.50;6911082;28;20715;-74
2021/05/09 09:33:33;;;;;;;1.52;0.98;;;;;;;39.62;14.94;94639.25;6957406;28;20214;-75
2021/05/09 09:37:01;;;;;;;2.58;1.00;;;;;;;39.11;12.75;94624.34;6956044;28;20628;-73
2021/05/09 09:40:22;;;;;;;1.05;0.80;;;;;;;38.78;13.25;94620.50;6955393;28;20228;-72
2021/05/09 09:44:00;;;;;;;2.08;1.10;;;;;;;39.18;13.23;94627.44;6946105;28;20214;-73
2021/05/09 09:47:24;;;;;;;1.17;1.00;;;;;;;39.97;12.90;94615.69;6948002;28;20211;-73
2021/05/09 09:50:47;;;;;;;1.60;1.00;;;;;;;40.39;12.67;94621.34;6963679;28;20226;-75
2021/05/09 09:54:08;;;;;;;1.52;0.90;;;;;;;39.84;12.94;94625.91;6945939;28;20215;-75
2021/05/09 09:57:30;;;;;;;2.30;1.10;;;;;;;39.15;13.18;94622.53;6960752;28;20229;-75
2021/05/09 10:00:50;;;;;;;1.67;1.58;;;;;;;38.91;13.84;94628.66;6944379;28;20224;-75
2021/05/09 10:04:11;;;;;;;2.97;0.88;;;;;;;38.62;12.75;94617.41;6943004;28;20223;-72
2021/05/09 10:07:33;;;;;;;1.10;0.90;;;;;;;38.47;13.22;94615.94;6947974;28;20284;-72
2021/05/09 10:10:53;;;;;;;3.13;1.10;;;;;;;38.61;12.08;94604.66;6962439;28;20250;-72
2021/05/09 10:14:14;;;;;;;2.55;0.90;;;;;;;39.15;12.95;94611.44;6931804;28;20226;-72
2021/05/09 10:17:36;;;;;;;1.63;1.00;;;;;;;39.74;11.54;94603.19;6957706;28;20218;-74
2021/05/09 10:20:57;;;;;;;1.00;0.90;;;;;;;40.02;11.09;94609.94;6964950;28;20285;-73
2021/05/09 10:24:22;;;;;;;2.85;1.02;;;;;;;40.11;11.62;94601.53;6973559;28;20257;-73
2021/05/09 10:27:44;;;;;;;2.15;1.35;;;;;;;40.75;11.57;94598.44;6952045;28;20334;-72
2021/05/09 10:31:06;;;;;;;1.17;1.08;;;;;;;41.46;10.75;94594.28;6949344;28;20238;-72
2021/05/09 10:35:01;;;;;;;2.00;1.25;;;;;;;42.22;10.40;94590.78;6958095;28;20203;-72
2021/05/09 10:38:22;;;;;;;0.93;0.90;;;;;;;42.25;9.83;94584.50;6920338;28;20221;-73
2021/05/09 10:41:54;;;;;;;1.40;1.30;;;;;;;42.12;10.08;94587.66;6959471;28;20245;-72
2021/05/09 10:45:33;;;;;;;2.38;1.13;;;;;;;41.67;9.67;94594.16;6967537;28;20248;-73
2021/05/09 10:49:11;;;;;;;2.42;1.15;;;;;;;40.58;9.63;94591.06;6954835;28;20281;-72
2021/05/09 10:52:42;;;;;;;1.40;1.25;;;;;;;39.54;10.28;94585.31;6960517;28;20299;-71
2021/05/09 10:56:15;;;;;;;2.13;1.92;;;;;;;38.52;10.97;94576.13;6948560;28;20219;-72
2021/05/09 10:59:58;;;;;;;1.42;1.17;;;;;;;37.46;11.65;94577.38;6939825;28;20242;-73
2021/05/09 11:03:36;;;;;;;1.00;0.70;;;;;;;36.81;12.47;94582.75;6947256;28;20349;-72
2021/05/09 11:06:57;;;;;;;2.35;1.67;;;;;;;35.83;12.83;94576.22;6948984;28;20691;-72
2021/05/09 11:10:41;;;;;;;1.02;0.77;;;;;;;34.90;12.58;94577.56;6962542;28;20238;-73
2021/05/09 11:14:02;;;;;;;0.63;0.60;;;;;;;34.39;13.43;94582.00;6941629;28;20226;-71
2021/05/09 11:17:22;;;;;;;1.95;1.15;;;;;;;33.78;13.59;94573.81;6960744;28;20215;-72
2021/05/09 11:20:52;;;;;;;1.60;0.88;;;;;;;33.35;14.71;94580.44;6951638;28;20226;-70
2021/05/09 11:24:21;;;;;;;1.33;0.70;;;;;;;33.19;14.67;94571.56;6947983;28;20219;-72
2021/05/09 11:27:47;;;;;;;1.35;0.90;;;;;;;32.83;14.08;94576.59;6932395;28;20211;-72
2021/05/09 11:31:25;;;;;;;0.75;0.70;;;;;;;32.29;14.09;94593.31;6967471;28;20268;-71
2021/05/09 11:34:51;;;;;;;0.73;0.70;;;;;;;31.69;14.34;94576.09;6960587;28;20222;-71
2021/05/09 11:38:15;;;;;;;0.88;0.68;;;;;;;31.47;14.90;94571.00;6966869;28;20217;-72
2021/05/09 11:41:55;;;;;;;2.10;0.75;;;;;;;31.43;15.93;94575.41;6940770;28;20250;-71
2021/05/09 11:45:15;;;;;;;3.47;0.80;;;;;;;31.44;16.09;94568.78;6949994;28;20216;-70
2021/05/09 11:48:36;;;;;;;1.92;0.65;;;;;;;31.45;16.85;94573.19;6954598;28;20234;-72
2021/05/09 11:52:23;;;;;;;1.00;0.90;;;;;;;31.50;16.40;94564.09;6952297;28;20215;-72
2021/05/09 11:55:44;;;;;;;1.95;1.00;;;;;;;31.50;16.44;94564.09;6938331;28;20224;-71
2021/05/09 11:59:06;;;;;;;1.23;0.73;;;;;;;31.42;16.29;94560.03;6926500;28;20297;-71
2021/05/09 12:02:28;;;;;;;2.13;0.80;;;;;;;31.19;16.66;94554.38;6948171;28;20237;-71
2021/05/09 12:05:51;;;;;;;1.17;0.73;;;;;;;31.17;16.96;94551.13;6946659;28;20216;-71
2021/05/09 12:09:12;;;;;;;1.00;0.75;;;;;;;31.11;17.14;94553.06;6938926;28;20227;-70
2021/05/09 12:12:37;;;;;;;0.70;0.70;;;;;;;31.14;17.95;94548.91;6931258;28;20233;-71
2021/05/09 12:15:59;;;;;;;0.73;0.70;;;;;;;31.13;17.19;94534.41;6938559;28;20215;-71
2021/05/09 12:19:30;;;;;;;1.17;0.80;;;;;;;31.11;15.99;94528.38;6933211;28;20314;-71
2021/05/09 12:22:50;;;;;;;0.70;0.70;;;;;;;31.00;16.55;94524.00;6948728;28;20231;-71
2021/05/09 12:26:14;;;;;;;0.60;0.60;;;;;;;30.92;17.21;94522.66;6950502;28;20257;-71
2021/05/09 12:29:43;;;;;;;1.73;0.70;;;;;;;30.79;16.74;94516.94;6945801;28;20230;-71
2021/05/09 12:33:04;;;;;;;1.15;0.90;;;;;;;30.60;16.53;94501.13;6942895;28;20272;-70
2021/05/09 12:36:24;;;;;;;0.95;0.60;;;;;;;30.42;16.78;94498.13;6950187;28;20220;-71
2021/05/09 12:39:44;;;;;;;2.72;0.68;;;;;;;30.38;16.76;94502.53;6934867;28;20290;-71
2021/05/09 12:43:09;;;;;;;1.08;0.73;;;;;;;30.36;17.19;94499.22;6939854;28;20258;-71
2021/05/09 12:46:44;;;;;;;0.93;0.60;;;;;;;30.35;17.14;94492.09;6954881;28;20210;-71
2021/05/09 12:50:05;;;;;;;2.20;0.90;;;;;;;30.14;15.86;94483.09;6945707;28;20216;-71
2021/05/09 12:53:46;;;;;;;1.13;0.60;;;;;;;30.16;17.77;94480.94;6960130;28;20295;-71
2021/05/09 12:57:21;;;;;;;0.95;0.57;;;;;;;30.18;16.15;94467.78;6956004;28;20215;-71
2021/05/09 13:00:42;;;;;;;0.70;0.70;;;;;;;30.15;15.67;94471.88;6954221;28;20238;-72
2021/05/09 13:04:03;;;;;;;2.80;0.90;;;;;;;30.13;16.53;94460.38;6928859;28;20219;-72
2021/05/09 13:07:24;;;;;;;0.70;0.70;;;;;;;30.11;16.33;94461.75;6942912;28;20206;-70
2021/05/09 13:10:45;;;;;;;0.68;0.68;;;;;;;30.00;16.20;94452.75;6947100;28;20305;-73
2021/05/09 13:14:05;;;;;;;1.77;0.70;;;;;;;29.85;16.16;94441.78;6940913;28;20207;-71
2021/05/09 13:17:25;;;;;;;1.05;0.75;;;;;;;29.74;16.40;94440.97;6952921;28;20226;-71
2021/05/09 13:20:46;;;;;;;0.80;0.70;;;;;;;29.59;16.28;94429.19;6948703;28;20230;-72
2021/05/09 13:24:07;;;;;;;1.85;0.60;;;;;;;29.47;16.74;94437.69;6970585;28;20613;-70
2021/05/09 13:27:29;;;;;;;1.35;0.60;;;;;;;29.39;16.95;94435.50;6940986;28;20215;-71
2021/05/09 13:30:49;;;;;;;1.52;0.60;;;;;;;29.48;17.51;94425.63;6953375;28;20223;-71
2021/05/09 13:34:10;;;;;;;1.50;0.70;;;;;;;29.50;16.97;94417.16;6966824;28;20218;-70
2021/05/09 13:37:33;;;;;;;1.13;0.65;;;;;;;29.49;17.37;94416.34;6958170;28;20206;-70
2021/05/09 13:40:54;;;;;;;0.85;0.80;;;;;;;29.32;16.59;94424.00;6961207;28;20242;-70
2021/05/09 13:44:14;;;;;;;2.20;0.90;;;;;;;29.21;16.67;94414.94;6951466;28;20218;-70
2021/05/09 13:47:34;;;;;;;0.50;0.50;;;;;;;29.18;16.79;94414.66;6953445;28;20214;-69
2021/05/09 13:50:56;;;;;;;0.80;0.60;;;;;;;29.14;16.67;94408.91;6945510;28;20243;-69
2021/05/09 13:54:16;;;;;;;0.70;0.70;;;;;;;29.14;17.23;94397.16;6955308;28;20207;-69
2021/05/09 13:57:39;;;;;;;1.05;0.60;;;;;;;29.07;16.99;94397.44;6937614;28;20226;-69
2021/05/09 14:00:59;;;;;;;0.65;0.63;;;;;;;29.04;17.29;94392.50;6941331;28;20723;-71
2021/05/09 14:04:20;;;;;;;0.85;0.80;;;;;;;28.98;18.16;94386.19;6930070;28;20224;-65
2021/05/09 14:07:41;;;;;;;0.85;0.70;;;;;;;28.96;18.63;94390.31;6940724;28;20218;-70
2021/05/09 14:11:01;;;;;;;1.17;0.80;;;;;;;29.00;19.02;94391.41;6957964;28;20301;-69
2021/05/09 14:14:21;;;;;;;2.05;0.80;;;;;;;29.06;19.12;94403.16;6964158;28;20222;-71
2021/05/09 14:17:42;;;;;;;0.70;0.70;;;;;;;29.07;18.33;94394.69;6935426;28;20218;-69
2021/05/09 14:21:02;;;;;;;1.08;0.73;;;;;;;29.11;17.96;94394.97;6949610;28;20259;-70
2021/05/09 14:24:23;;;;;;;3.53;0.70;;;;;;;29.08;18.17;94385.38;6962135;28;20319;-70
2021/05/09 14:27:46;;;;;;;0.80;0.60;;;;;;;29.12;18.55;94382.94;6968341;28;20247;-70
2021/05/09 14:31:06;;;;;;;0.80;0.70;;;;;;;29.17;19.06;94382.94;6943212;28;20369;-69
2021/05/09 14:34:27;;;;;;;1.40;0.68;;;;;;;29.22;18.66;94374.75;6939758;28;20556;-70
2021/05/09 14:37:47;;;;;;;2.00;0.70;;;;;;;29.24;17.30;94367.09;6959395;28;20213;-70
2021/05/09 14:41:08;;;;;;;0.85;0.60;;;;;;;29.23;16.95;94363.53;6944187;28;20258;-70
2021/05/09 14:44:28;;;;;;;1.48;0.70;;;;;;;29.24;17.36;94361.63;6970174;28;20682;-70
2021/05/09 14:47:49;;;;;;;0.70;0.60;;;;;;;29.26;16.94;94373.09;6948640;28;20222;-70
2021/05/09 14:51:09;;;;;;;0.93;0.70;;;;;;;29.20;16.91;94357.78;6953318;28;20310;-70
2021/05/09 14:54:29;;;;;;;0.60;0.60;;;;;;;29.18;16.85;94365.44;6938261;28;20685;-71
2021/05/09 14:57:52;;;;;;;2.05;0.60;;;;;;;29.19;16.34;94369.81;6953471;28;20614;-70
2021/05/09 15:01:12;;;;;;;1.30;0.80;;;;;;;29.19;17.22;94365.16;6957965;28;20302;-70
2021/05/09 15:04:33;;;;;;;1.38;0.90;;;;;;;29.15;16.84;94355.88;6952875;28;20226;-71
2021/05/09 15:07:53;;;;;;;1.60;0.60;;;;;;;29.14;17.23;94356.13;6961727;28;20686;-67
2021/05/09 15:11:14;;;;;;;1.35;0.80;;;;;;;29.10;17.29;94355.06;6976445;28;20222;-71
2021/05/09 15:14:36;;;;;;;6.45;1.20;;;;;;;29.05;17.86;94361.34;6967068;28;20222;-70
2021/05/09 15:17:57;;;;;;;2.78;0.80;;;;;;;29.05;17.72;94350.41;6971429;28;20219;-71
2021/05/09 15:21:17;;;;;;;2.33;1.10;;;;;;;29.08;18.19;94343.56;6954257;28;20653;-71
2021/05/09 15:24:42;;;;;;;1.48;0.70;;;;;;;29.06;17.56;94330.19;6981996;28;20210;-71
2021/05/09 15:28:02;;;;;;;5.40;1.15;;;;;;;29.07;19.08;94344.69;6969191;28;20237;-71
2021/05/09 15:31:22;;;;;;;1.38;0.90;;;;;;;29.10;18.96;94344.13;6978965;28;20214;-71
2021/05/09 15:34:43;;;;;;;0.90;0.70;;;;;;;29.07;18.81;94340.03;6979696;28;20328;-71
2021/05/09 15:38:03;;;;;;;2.47;0.68;;;;;;;29.04;18.61;94335.09;6977508;28;20577;-71
2021/05/09 15:41:25;;;;;;;0.88;0.77;;;;;;;29.05;19.22;94334.00;6975330;28;20234;-65
2021/05/09 15:44:47;;;;;;;1.08;0.88;;;;;;;29.03;18.90;94322.50;6951297;28;20231;-71
2021/05/09 15:48:07;;;;;;;0.60;0.60;;;;;;;29.04;19.49;94326.06;6968675;28;20301;-70
2021/05/09 15:51:28;;;;;;;1.25;0.65;;;;;;;29.06;19.20;94324.72;6969858;28;20686;-70
2021/05/09 15:54:48;;;;;;;1.67;1.17;;;;;;;29.04;19.91;94329.63;6951902;28;20220;-71
2021/05/09 15:58:09;;;;;;;2.63;1.02;;;;;;;28.92;19.62;94327.16;6974838;28;20222;-70